AAL598 CYOW-KMDT
Flight info
| Callsign | AAL598 |
|---|---|
| Flight time | 0h 57m |
| Altitude | 28000 |
| Route | IKLAX Q844 SYR DCT CFB |
| Aircraft | B737/M-SDE2E3FGHIRWXY/LB1 |
Departure
| Time | 2026-05-07 02:15 |
|---|---|
| Airport | Ottawa Macdonald-Cartier International Airport (CYOW) |
Arrival
| Time | 2026-05-07 03:12 |
|---|---|
| Airport | Harrisburg International Airport (KMDT) |
| Time | Latitude | Longitude | Altitude | Speed | Heading |
|---|---|---|---|---|---|
| 2026-05-07 02:05 | 45.32060 | -75.66626 | 375 ft | 0 kts | 36° |
| 2026-05-07 02:08 | 45.32059 | -75.66627 | 375 ft | 2 kts | 36° |
| 2026-05-07 02:08 | 45.32044 | -75.66642 | 375 ft | 3 kts | 36° |
| 2026-05-07 02:08 | 45.32030 | -75.66657 | 375 ft | 3 kts | 36° |
| 2026-05-07 02:08 | 45.32015 | -75.66671 | 375 ft | 2 kts | 35° |
| 2026-05-07 02:09 | 45.31999 | -75.66677 | 375 ft | 2 kts | 324° |
| 2026-05-07 02:09 | 45.31996 | -75.66673 | 375 ft | 0 kts | 311° |
| 2026-05-07 02:09 | 45.32000 | -75.66681 | 375 ft | 3 kts | 303° |
| 2026-05-07 02:09 | 45.31988 | -75.66697 | 376 ft | 3 kts | 172° |
| 2026-05-07 02:10 | 45.31968 | -75.66653 | 375 ft | 9 kts | 123° |
| 2026-05-07 02:10 | 45.31916 | -75.66540 | 375 ft | 18 kts | 123° |
| 2026-05-07 02:10 | 45.31902 | -75.66376 | 375 ft | 18 kts | 59° |
| 2026-05-07 02:10 | 45.31966 | -75.66227 | 376 ft | 17 kts | 58° |
| 2026-05-07 02:11 | 45.31999 | -75.66154 | 375 ft | 8 kts | 56° |
| 2026-05-07 02:11 | 45.32033 | -75.66082 | 374 ft | 9 kts | 56° |
| 2026-05-07 02:11 | 45.32066 | -75.66011 | 375 ft | 9 kts | 56° |
| 2026-05-07 02:11 | 45.32098 | -75.65942 | 374 ft | 8 kts | 56° |
| 2026-05-07 02:12 | 45.32129 | -75.65874 | 374 ft | 8 kts | 56° |
| 2026-05-07 02:12 | 45.32169 | -75.65789 | 374 ft | 14 kts | 56° |
| 2026-05-07 02:12 | 45.32238 | -75.65639 | 376 ft | 22 kts | 57° |
| 2026-05-07 02:12 | 45.32336 | -75.65420 | 376 ft | 28 kts | 58° |
| 2026-05-07 02:13 | 45.32434 | -75.65191 | 373 ft | 26 kts | 59° |
| 2026-05-07 02:13 | 45.32525 | -75.64977 | 369 ft | 24 kts | 59° |
| 2026-05-07 02:13 | 45.32600 | -75.64777 | 369 ft | 22 kts | 87° |
| 2026-05-07 02:13 | 45.32550 | -75.64590 | 367 ft | 21 kts | 144° |
| 2026-05-07 02:14 | 45.32436 | -75.64661 | 367 ft | 20 kts | 237° |
| 2026-05-07 02:14 | 45.32320 | -75.64920 | 371 ft | 65 kts | 237° |
| 2026-05-07 02:14 | 45.31915 | -75.65808 | 370 ft | 146 kts | 236° |
| 2026-05-07 02:14 | 45.31306 | -75.67228 | 771 ft | 184 kts | 237° |
| 2026-05-07 02:15 | 45.30428 | -75.68725 | 1371 ft | 212 kts | 223° |
| 2026-05-07 02:15 | 45.28995 | -75.69682 | 1720 ft | 250 kts | 191° |
| 2026-05-07 02:15 | 45.27154 | -75.70037 | 1838 ft | 282 kts | 197° |
| 2026-05-07 02:15 | 45.25285 | -75.70983 | 2512 ft | 286 kts | 202° |
| 2026-05-07 02:16 | 45.23491 | -75.71943 | 3931 ft | 261 kts | 202° |
| 2026-05-07 02:16 | 45.21871 | -75.72788 | 5507 ft | 243 kts | 203° |
| 2026-05-07 02:16 | 45.20233 | -75.73637 | 6304 ft | 259 kts | 203° |
| 2026-05-07 02:16 | 45.18512 | -75.74518 | 7268 ft | 266 kts | 203° |
| 2026-05-07 02:17 | 45.16765 | -75.75402 | 8380 ft | 267 kts | 204° |
| 2026-05-07 02:17 | 45.15002 | -75.76285 | 9488 ft | 270 kts | 204° |
| 2026-05-07 02:17 | 45.13224 | -75.77173 | 10467 ft | 274 kts | 205° |
| 2026-05-07 02:17 | 45.11342 | -75.78115 | 10847 ft | 301 kts | 204° |
| 2026-05-07 02:18 | 45.09272 | -75.79152 | 11140 ft | 327 kts | 204° |
| 2026-05-07 02:18 | 45.07119 | -75.80217 | 11915 ft | 334 kts | 204° |
| 2026-05-07 02:18 | 45.04918 | -75.81296 | 12950 ft | 335 kts | 204° |
| 2026-05-07 02:18 | 45.02714 | -75.82374 | 13951 ft | 336 kts | 204° |
| 2026-05-07 02:19 | 45.00494 | -75.83461 | 14812 ft | 339 kts | 204° |
| 2026-05-07 02:19 | 44.98251 | -75.84560 | 15661 ft | 343 kts | 204° |
| 2026-05-07 02:19 | 44.95990 | -75.85668 | 16518 ft | 346 kts | 204° |
| 2026-05-07 02:19 | 44.93704 | -75.86787 | 17349 ft | 349 kts | 204° |
| 2026-05-07 02:20 | 44.91399 | -75.87916 | 18170 ft | 352 kts | 204° |
| 2026-05-07 02:20 | 44.89073 | -75.89054 | 18862 ft | 356 kts | 204° |
| 2026-05-07 02:20 | 44.86715 | -75.90207 | 19499 ft | 361 kts | 204° |
| 2026-05-07 02:20 | 44.84335 | -75.91368 | 20203 ft | 363 kts | 204° |
| 2026-05-07 02:21 | 44.81938 | -75.92537 | 20912 ft | 366 kts | 204° |
| 2026-05-07 02:21 | 44.79524 | -75.93714 | 21582 ft | 369 kts | 204° |
| 2026-05-07 02:21 | 44.77086 | -75.94901 | 22242 ft | 372 kts | 204° |
| 2026-05-07 02:21 | 44.74627 | -75.96098 | 22894 ft | 376 kts | 204° |
| 2026-05-07 02:22 | 44.72146 | -75.97301 | 23510 ft | 379 kts | 203° |
| 2026-05-07 02:22 | 44.69562 | -75.98260 | 23911 ft | 390 kts | 196° |
| 2026-05-07 02:22 | 44.66854 | -75.98682 | 24317 ft | 400 kts | 190° |
| 2026-05-07 02:22 | 44.64075 | -75.98965 | 24888 ft | 401 kts | 189° |
| 2026-05-07 02:23 | 44.61285 | -75.99240 | 25450 ft | 402 kts | 189° |
| 2026-05-07 02:23 | 44.58485 | -75.99525 | 25957 ft | 405 kts | 189° |
| 2026-05-07 02:23 | 44.55665 | -75.99822 | 26424 ft | 408 kts | 189° |
| 2026-05-07 02:23 | 44.52828 | -76.00128 | 26884 ft | 411 kts | 189° |
| 2026-05-07 02:24 | 44.49961 | -76.00442 | 27279 ft | 415 kts | 189° |
| 2026-05-07 02:24 | 44.47079 | -76.00758 | 27746 ft | 416 kts | 189° |
| 2026-05-07 02:24 | 44.44182 | -76.01076 | 27874 ft | 419 kts | 189° |
| 2026-05-07 02:24 | 44.41271 | -76.01394 | 27860 ft | 419 kts | 189° |
| 2026-05-07 02:25 | 44.38379 | -76.01709 | 27890 ft | 414 kts | 189° |
| 2026-05-07 02:25 | 44.35504 | -76.02023 | 27898 ft | 415 kts | 189° |
| 2026-05-07 02:25 | 44.32620 | -76.02353 | 27892 ft | 415 kts | 190° |
| 2026-05-07 02:25 | 44.29778 | -76.02765 | 27899 ft | 416 kts | 191° |
| 2026-05-07 02:26 | 44.26903 | -76.03229 | 27907 ft | 416 kts | 191° |
| 2026-05-07 02:26 | 44.24026 | -76.03706 | 27910 ft | 417 kts | 191° |
| 2026-05-07 02:26 | 44.21135 | -76.04185 | 27912 ft | 418 kts | 191° |
| 2026-05-07 02:26 | 44.18241 | -76.04657 | 27909 ft | 419 kts | 191° |
| 2026-05-07 02:27 | 44.15349 | -76.05122 | 27893 ft | 419 kts | 191° |
| 2026-05-07 02:27 | 44.13395 | -76.05433 | 27869 ft | 418 kts | 192° |
| 2026-05-07 02:27 | 44.10545 | -76.05883 | 27895 ft | 417 kts | 192° |
| 2026-05-07 02:27 | 44.07656 | -76.06338 | 27892 ft | 417 kts | 192° |
| 2026-05-07 02:28 | 44.04774 | -76.06791 | 27904 ft | 417 kts | 192° |
| 2026-05-07 02:28 | 44.01886 | -76.07244 | 27894 ft | 417 kts | 192° |
| 2026-05-07 02:28 | 43.99004 | -76.07695 | 27892 ft | 417 kts | 192° |
| 2026-05-07 02:28 | 43.96120 | -76.08146 | 27894 ft | 416 kts | 192° |
| 2026-05-07 02:29 | 43.93236 | -76.08597 | 27900 ft | 416 kts | 192° |
| 2026-05-07 02:29 | 43.90355 | -76.09047 | 27900 ft | 416 kts | 192° |
| 2026-05-07 02:29 | 43.87474 | -76.09497 | 27901 ft | 416 kts | 192° |
| 2026-05-07 02:29 | 43.84594 | -76.09946 | 27904 ft | 416 kts | 192° |
| 2026-05-07 02:30 | 43.81713 | -76.10395 | 27903 ft | 417 kts | 192° |
| 2026-05-07 02:30 | 43.78830 | -76.10844 | 27905 ft | 417 kts | 192° |
| 2026-05-07 02:30 | 43.75986 | -76.11286 | 27889 ft | 417 kts | 193° |
| 2026-05-07 02:30 | 43.73096 | -76.11735 | 27900 ft | 417 kts | 193° |
| 2026-05-07 02:31 | 43.70214 | -76.12182 | 27911 ft | 417 kts | 193° |
| 2026-05-07 02:31 | 43.67321 | -76.12631 | 27915 ft | 418 kts | 193° |
| 2026-05-07 02:31 | 43.64430 | -76.13079 | 27917 ft | 418 kts | 193° |
| 2026-05-07 02:31 | 43.61537 | -76.13526 | 27918 ft | 418 kts | 193° |
| 2026-05-07 02:32 | 43.58643 | -76.13974 | 27916 ft | 419 kts | 193° |
| 2026-05-07 02:32 | 43.55749 | -76.14422 | 27925 ft | 418 kts | 194° |
| 2026-05-07 02:32 | 43.52852 | -76.14862 | 27918 ft | 419 kts | 194° |
| 2026-05-07 02:32 | 43.49953 | -76.15309 | 27916 ft | 418 kts | 194° |
| 2026-05-07 02:33 | 43.47061 | -76.15755 | 27909 ft | 418 kts | 194° |
| 2026-05-07 02:33 | 43.44175 | -76.16201 | 27909 ft | 417 kts | 194° |
| 2026-05-07 02:33 | 43.41289 | -76.16645 | 27909 ft | 417 kts | 194° |
| 2026-05-07 02:33 | 43.38408 | -76.17087 | 27911 ft | 416 kts | 194° |
| 2026-05-07 02:34 | 43.35538 | -76.17528 | 27902 ft | 415 kts | 195° |
| 2026-05-07 02:34 | 43.32668 | -76.17968 | 27906 ft | 415 kts | 195° |
| 2026-05-07 02:34 | 43.29828 | -76.18403 | 27907 ft | 415 kts | 195° |
| 2026-05-07 02:34 | 43.26955 | -76.18843 | 27912 ft | 415 kts | 195° |
| 2026-05-07 02:35 | 43.24081 | -76.19283 | 27919 ft | 416 kts | 195° |
| 2026-05-07 02:35 | 43.21205 | -76.19722 | 27917 ft | 416 kts | 195° |
| 2026-05-07 02:35 | 43.18330 | -76.20160 | 27889 ft | 416 kts | 195° |
| 2026-05-07 02:35 | 43.15435 | -76.20506 | 27908 ft | 421 kts | 191° |
| 2026-05-07 02:36 | 43.12475 | -76.20404 | 27925 ft | 427 kts | 187° |
| 2026-05-07 02:36 | 43.09504 | -76.20180 | 27912 ft | 428 kts | 186° |
| 2026-05-07 02:36 | 43.06519 | -76.19930 | 27917 ft | 428 kts | 186° |
| 2026-05-07 02:36 | 43.04485 | -76.19759 | 27920 ft | 428 kts | 186° |
| 2026-05-07 02:37 | 43.01511 | -76.19519 | 27915 ft | 428 kts | 187° |
| 2026-05-07 02:37 | 42.98540 | -76.19292 | 27871 ft | 428 kts | 188° |
| 2026-05-07 02:37 | 42.95571 | -76.19075 | 27909 ft | 427 kts | 188° |
| 2026-05-07 02:37 | 42.92603 | -76.18865 | 27909 ft | 426 kts | 188° |
| 2026-05-07 02:38 | 42.89640 | -76.18659 | 27913 ft | 427 kts | 188° |
| 2026-05-07 02:38 | 42.86674 | -76.18456 | 27908 ft | 427 kts | 188° |
| 2026-05-07 02:38 | 42.83696 | -76.18252 | 27928 ft | 427 kts | 188° |
| 2026-05-07 02:38 | 42.80722 | -76.18047 | 27911 ft | 428 kts | 188° |
| 2026-05-07 02:39 | 42.77743 | -76.17840 | 27905 ft | 429 kts | 189° |
| 2026-05-07 02:39 | 42.74800 | -76.17633 | 27892 ft | 429 kts | 189° |
| 2026-05-07 02:39 | 42.71829 | -76.17432 | 27903 ft | 426 kts | 189° |
| 2026-05-07 02:39 | 42.68868 | -76.17223 | 27932 ft | 427 kts | 189° |
| 2026-05-07 02:40 | 42.65905 | -76.17013 | 27917 ft | 426 kts | 189° |
| 2026-05-07 02:40 | 42.62941 | -76.16812 | 27921 ft | 427 kts | 189° |
| 2026-05-07 02:40 | 42.59975 | -76.16613 | 27920 ft | 426 kts | 189° |
| 2026-05-07 02:40 | 42.57013 | -76.16413 | 27891 ft | 426 kts | 190° |
| 2026-05-07 02:41 | 42.54058 | -76.16211 | 27913 ft | 425 kts | 190° |
| 2026-05-07 02:41 | 42.51102 | -76.16006 | 27919 ft | 426 kts | 190° |
| 2026-05-07 02:41 | 42.48143 | -76.15804 | 27910 ft | 425 kts | 190° |
| 2026-05-07 02:41 | 42.45185 | -76.15606 | 27895 ft | 425 kts | 191° |
| 2026-05-07 02:42 | 42.42232 | -76.15411 | 27914 ft | 425 kts | 190° |
| 2026-05-07 02:42 | 42.39280 | -76.15209 | 27912 ft | 425 kts | 190° |
| 2026-05-07 02:42 | 42.36324 | -76.15005 | 27884 ft | 425 kts | 191° |
| 2026-05-07 02:42 | 42.33372 | -76.14801 | 27894 ft | 425 kts | 191° |
| 2026-05-07 02:43 | 42.30406 | -76.14599 | 27891 ft | 426 kts | 191° |
| 2026-05-07 02:43 | 42.27451 | -76.14398 | 27904 ft | 426 kts | 191° |
| 2026-05-07 02:43 | 42.24530 | -76.14200 | 27885 ft | 427 kts | 191° |
| 2026-05-07 02:43 | 42.21562 | -76.13998 | 27888 ft | 427 kts | 191° |
| 2026-05-07 02:44 | 42.18593 | -76.13798 | 27913 ft | 427 kts | 191° |
| 2026-05-07 02:44 | 42.15618 | -76.13596 | 27871 ft | 428 kts | 191° |
| 2026-05-07 02:44 | 42.12642 | -76.13395 | 27917 ft | 429 kts | 191° |
| 2026-05-07 02:44 | 42.09651 | -76.13196 | 27914 ft | 430 kts | 191° |
| 2026-05-07 02:45 | 42.06658 | -76.12999 | 27909 ft | 432 kts | 191° |
| 2026-05-07 02:45 | 42.03653 | -76.12802 | 27924 ft | 432 kts | 191° |
| 2026-05-07 02:45 | 42.00649 | -76.12608 | 27920 ft | 432 kts | 191° |
| 2026-05-07 02:45 | 41.97643 | -76.12413 | 27913 ft | 432 kts | 191° |
| 2026-05-07 02:46 | 41.94645 | -76.12220 | 27927 ft | 431 kts | 191° |
| 2026-05-07 02:46 | 41.91644 | -76.12024 | 27911 ft | 432 kts | 191° |
| 2026-05-07 02:46 | 41.88643 | -76.11827 | 27905 ft | 432 kts | 191° |
| 2026-05-07 02:46 | 41.85650 | -76.11627 | 27914 ft | 431 kts | 191° |
| 2026-05-07 02:47 | 41.82657 | -76.11425 | 27915 ft | 431 kts | 191° |
| 2026-05-07 02:47 | 41.79665 | -76.11226 | 27899 ft | 430 kts | 191° |
| 2026-05-07 02:47 | 41.76720 | -76.11030 | 27854 ft | 428 kts | 191° |
| 2026-05-07 02:47 | 41.73743 | -76.10826 | 27885 ft | 428 kts | 191° |
| 2026-05-07 02:48 | 41.70767 | -76.10616 | 27911 ft | 429 kts | 191° |
| 2026-05-07 02:48 | 41.67783 | -76.10405 | 27904 ft | 430 kts | 191° |
| 2026-05-07 02:48 | 41.64788 | -76.10194 | 27915 ft | 431 kts | 191° |
| 2026-05-07 02:48 | 41.61786 | -76.09983 | 27915 ft | 432 kts | 191° |
| 2026-05-07 02:49 | 41.58776 | -76.09770 | 27904 ft | 433 kts | 191° |
| 2026-05-07 02:49 | 41.55769 | -76.09559 | 27856 ft | 432 kts | 191° |
| 2026-05-07 02:49 | 41.52765 | -76.09345 | 27889 ft | 432 kts | 191° |
| 2026-05-07 02:49 | 41.49763 | -76.09127 | 27908 ft | 432 kts | 191° |
| 2026-05-07 02:50 | 41.46758 | -76.08909 | 27886 ft | 432 kts | 191° |
| 2026-05-07 02:50 | 41.43754 | -76.08688 | 27892 ft | 432 kts | 191° |
| 2026-05-07 02:50 | 41.40755 | -76.08463 | 27887 ft | 429 kts | 191° |
| 2026-05-07 02:50 | 41.37815 | -76.08241 | 27340 ft | 418 kts | 194° |
| 2026-05-07 02:51 | 41.35116 | -76.08733 | 26728 ft | 380 kts | 210° |
| 2026-05-07 02:51 | 41.32681 | -76.09884 | 26095 ft | 367 kts | 214° |
| 2026-05-07 02:51 | 41.30305 | -76.11066 | 25515 ft | 362 kts | 213° |
| 2026-05-07 02:51 | 41.27934 | -76.12159 | 24952 ft | 360 kts | 212° |
| 2026-05-07 02:52 | 41.25550 | -76.13151 | 24382 ft | 358 kts | 210° |
| 2026-05-07 02:52 | 41.23160 | -76.14059 | 23825 ft | 355 kts | 208° |
| 2026-05-07 02:52 | 41.20785 | -76.14901 | 23280 ft | 352 kts | 208° |
| 2026-05-07 02:52 | 41.18412 | -76.15709 | 22634 ft | 351 kts | 207° |
| 2026-05-07 02:53 | 41.16041 | -76.16497 | 22032 ft | 351 kts | 206° |
| 2026-05-07 02:53 | 41.13674 | -76.17266 | 21338 ft | 348 kts | 206° |
| 2026-05-07 02:53 | 41.11327 | -76.18020 | 20715 ft | 346 kts | 205° |
| 2026-05-07 02:53 | 41.08992 | -76.18770 | 20078 ft | 344 kts | 205° |
| 2026-05-07 02:54 | 41.06664 | -76.19517 | 19506 ft | 343 kts | 204° |
| 2026-05-07 02:54 | 41.04377 | -76.20250 | 18918 ft | 342 kts | 204° |
| 2026-05-07 02:54 | 41.02068 | -76.20990 | 18339 ft | 341 kts | 203° |
| 2026-05-07 02:54 | 40.99765 | -76.21726 | 17708 ft | 340 kts | 203° |
| 2026-05-07 02:55 | 40.97505 | -76.22442 | 17046 ft | 329 kts | 203° |
| 2026-05-07 02:55 | 40.95311 | -76.23138 | 16399 ft | 320 kts | 203° |
| 2026-05-07 02:55 | 40.93174 | -76.23814 | 15739 ft | 312 kts | 203° |
| 2026-05-07 02:55 | 40.91091 | -76.24477 | 15120 ft | 304 kts | 203° |
| 2026-05-07 02:56 | 40.89062 | -76.25128 | 14497 ft | 297 kts | 203° |
| 2026-05-07 02:56 | 40.87073 | -76.25757 | 13919 ft | 291 kts | 203° |
| 2026-05-07 02:56 | 40.85121 | -76.26374 | 13299 ft | 285 kts | 202° |
| 2026-05-07 02:56 | 40.83202 | -76.26982 | 12649 ft | 281 kts | 202° |
| 2026-05-07 02:57 | 40.81314 | -76.27581 | 12008 ft | 278 kts | 202° |
| 2026-05-07 02:57 | 40.79450 | -76.28172 | 11401 ft | 274 kts | 202° |
| 2026-05-07 02:57 | 40.77610 | -76.28755 | 10841 ft | 270 kts | 202° |
| 2026-05-07 02:57 | 40.75796 | -76.29332 | 10259 ft | 267 kts | 202° |
| 2026-05-07 02:58 | 40.74027 | -76.29893 | 9678 ft | 263 kts | 202° |
| 2026-05-07 02:58 | 40.72263 | -76.30450 | 9164 ft | 257 kts | 202° |
| 2026-05-07 02:58 | 40.70539 | -76.30994 | 8812 ft | 253 kts | 201° |
| 2026-05-07 02:58 | 40.68835 | -76.31535 | 8443 ft | 250 kts | 201° |
| 2026-05-07 02:59 | 40.67149 | -76.32068 | 8099 ft | 248 kts | 201° |
| 2026-05-07 02:59 | 40.65481 | -76.32595 | 7747 ft | 247 kts | 201° |
| 2026-05-07 02:59 | 40.63791 | -76.33132 | 7412 ft | 252 kts | 201° |
| 2026-05-07 02:59 | 40.62072 | -76.33679 | 7073 ft | 255 kts | 201° |
| 2026-05-07 03:00 | 40.60347 | -76.34223 | 6729 ft | 254 kts | 200° |
| 2026-05-07 03:00 | 40.58627 | -76.34765 | 6389 ft | 254 kts | 200° |
| 2026-05-07 03:00 | 40.56912 | -76.35304 | 6090 ft | 253 kts | 200° |
| 2026-05-07 03:00 | 40.55208 | -76.35840 | 6033 ft | 251 kts | 200° |
| 2026-05-07 03:01 | 40.53494 | -76.36380 | 5866 ft | 255 kts | 200° |
| 2026-05-07 03:01 | 40.51768 | -76.36923 | 5677 ft | 255 kts | 200° |
| 2026-05-07 03:01 | 40.50044 | -76.37465 | 5521 ft | 254 kts | 200° |
| 2026-05-07 03:01 | 40.48333 | -76.38001 | 5357 ft | 252 kts | 200° |
| 2026-05-07 03:02 | 40.46629 | -76.38535 | 5195 ft | 252 kts | 200° |
| 2026-05-07 03:02 | 40.44926 | -76.39069 | 5044 ft | 251 kts | 200° |
| 2026-05-07 03:02 | 40.43229 | -76.39600 | 4891 ft | 251 kts | 200° |
| 2026-05-07 03:02 | 40.41536 | -76.40131 | 4757 ft | 250 kts | 200° |
| 2026-05-07 03:03 | 40.39839 | -76.40663 | 4610 ft | 251 kts | 199° |
| 2026-05-07 03:03 | 40.38137 | -76.41196 | 4454 ft | 252 kts | 199° |
| 2026-05-07 03:03 | 40.36431 | -76.41731 | 4299 ft | 253 kts | 199° |
| 2026-05-07 03:03 | 40.34718 | -76.42266 | 4151 ft | 253 kts | 199° |
| 2026-05-07 03:04 | 40.33003 | -76.42801 | 4005 ft | 253 kts | 199° |
| 2026-05-07 03:04 | 40.31269 | -76.43344 | 3964 ft | 259 kts | 198° |
| 2026-05-07 03:04 | 40.29531 | -76.43886 | 3936 ft | 251 kts | 199° |
| 2026-05-07 03:04 | 40.27884 | -76.44395 | 3864 ft | 241 kts | 199° |
| 2026-05-07 03:05 | 40.26279 | -76.44893 | 3784 ft | 234 kts | 199° |
| 2026-05-07 03:05 | 40.24709 | -76.45383 | 3722 ft | 230 kts | 199° |
| 2026-05-07 03:05 | 40.23154 | -76.45865 | 3625 ft | 230 kts | 199° |
| 2026-05-07 03:05 | 40.21586 | -76.46356 | 3565 ft | 232 kts | 199° |
| 2026-05-07 03:06 | 40.20010 | -76.46850 | 3492 ft | 231 kts | 199° |
| 2026-05-07 03:06 | 40.18477 | -76.47326 | 3365 ft | 223 kts | 199° |
| 2026-05-07 03:06 | 40.16981 | -76.47791 | 3199 ft | 218 kts | 199° |
| 2026-05-07 03:06 | 40.15515 | -76.48247 | 3049 ft | 218 kts | 198° |
| 2026-05-07 03:07 | 40.14027 | -76.48710 | 2997 ft | 220 kts | 199° |
| 2026-05-07 03:07 | 40.12533 | -76.49176 | 2965 ft | 221 kts | 199° |
| 2026-05-07 03:07 | 40.11248 | -76.50083 | 2948 ft | 201 kts | 236° |
| 2026-05-07 03:07 | 40.10866 | -76.51658 | 2945 ft | 175 kts | 280° |
| 2026-05-07 03:08 | 40.11113 | -76.53161 | 2955 ft | 171 kts | 278° |
| 2026-05-07 03:08 | 40.11342 | -76.54670 | 2963 ft | 166 kts | 287° |
| 2026-05-07 03:08 | 40.11718 | -76.56091 | 2972 ft | 170 kts | 289° |
| 2026-05-07 03:08 | 40.12169 | -76.57560 | 2978 ft | 178 kts | 292° |
| 2026-05-07 03:09 | 40.12699 | -76.59035 | 2911 ft | 181 kts | 294° |
| 2026-05-07 03:09 | 40.13248 | -76.60481 | 2701 ft | 174 kts | 295° |
| 2026-05-07 03:09 | 40.13777 | -76.61855 | 2483 ft | 166 kts | 295° |
| 2026-05-07 03:09 | 40.14284 | -76.63178 | 2283 ft | 160 kts | 296° |
| 2026-05-07 03:10 | 40.14771 | -76.64444 | 2046 ft | 149 kts | 297° |
| 2026-05-07 03:10 | 40.15226 | -76.65629 | 1859 ft | 144 kts | 297° |
| 2026-05-07 03:10 | 40.15678 | -76.66808 | 1682 ft | 147 kts | 297° |
| 2026-05-07 03:10 | 40.16143 | -76.68016 | 1473 ft | 149 kts | 297° |
| 2026-05-07 03:11 | 40.16589 | -76.69175 | 1294 ft | 133 kts | 297° |
| 2026-05-07 03:11 | 40.16996 | -76.70232 | 1127 ft | 133 kts | 296° |
| 2026-05-07 03:11 | 40.17424 | -76.71348 | 957 ft | 141 kts | 298° |
| 2026-05-07 03:11 | 40.17849 | -76.72493 | 832 ft | 138 kts | 297° |
| 2026-05-07 03:12 | 40.18263 | -76.73587 | 571 ft | 131 kts | 299° |
| 2026-05-07 03:12 | 40.18673 | -76.74621 | 392 ft | 126 kts | 301° |
| 2026-05-07 03:12 | 40.19053 | -76.75569 | 309 ft | 94 kts | 296° |
| 2026-05-07 03:12 | 40.19260 | -76.76102 | 311 ft | 49 kts | 297° |
| 2026-05-07 03:13 | 40.19422 | -76.76216 | 308 ft | 23 kts | 27° |
| 2026-05-07 03:13 | 40.19491 | -76.76044 | 308 ft | 22 kts | 84° |
| 2026-05-07 03:13 | 40.19496 | -76.75846 | 310 ft | 21 kts | 89° |
| 2026-05-07 03:13 | 40.19536 | -76.75694 | 310 ft | 0 kts | 41° |